createdAt,value
2018-11-13T00:01:33.083Z,98196.00
2018-11-13T00:05:35.498Z,98220.00
2018-11-13T00:09:37.812Z,98193.00
2018-11-13T00:13:40.232Z,98182.00
2018-11-13T00:17:42.589Z,98178.00
2018-11-13T00:21:44.922Z,98175.00
2018-11-13T00:25:47.351Z,98184.00
2018-11-13T00:29:49.689Z,98190.00
2018-11-13T00:33:51.989Z,98188.00
2018-11-13T00:37:54.315Z,98191.00
2018-11-13T00:41:56.651Z,98203.00
2018-11-13T00:45:59.111Z,98218.00
2018-11-13T00:50:01.567Z,98222.00
2018-11-13T00:54:03.959Z,98222.00
2018-11-13T00:58:06.353Z,98227.00
2018-11-13T01:02:08.853Z,98228.00
2018-11-13T01:06:11.129Z,98233.00
2018-11-13T01:10:14.652Z,98254.00
2018-11-13T01:14:16.940Z,98258.00
2018-11-13T01:18:19.272Z,98268.00
2018-11-13T01:22:21.640Z,98265.00
2018-11-13T01:26:23.915Z,98282.00
2018-11-13T01:30:26.246Z,98298.00
2018-11-13T01:34:28.627Z,98268.00
2018-11-13T01:38:30.982Z,98258.00
2018-11-13T01:42:33.436Z,98251.00
2018-11-13T01:46:35.772Z,98245.00
2018-11-13T01:50:38.177Z,98263.00
2018-11-13T01:54:40.766Z,98283.00
2018-11-13T01:58:43.103Z,98279.00
2018-11-13T02:02:46.818Z,98271.00
2018-11-13T02:06:49.207Z,98259.00
2018-11-13T02:10:51.536Z,98271.00
2018-11-13T02:14:53.899Z,98272.00
2018-11-13T02:18:56.231Z,98254.00
2018-11-13T02:22:58.591Z,98265.00
2018-11-13T02:27:00.932Z,98297.00
2018-11-13T02:31:03.319Z,98296.00
2018-11-13T02:35:06.512Z,98297.00
2018-11-13T02:39:09.701Z,98315.00
2018-11-13T02:43:12.326Z,98326.00
2018-11-13T02:47:14.710Z,98312.00
2018-11-13T02:51:18.750Z,98309.00
2018-11-13T02:55:21.051Z,98315.00
2018-11-13T02:59:23.387Z,98313.00
2018-11-13T03:03:25.759Z,98291.00
2018-11-13T03:07:28.114Z,98301.00
2018-11-13T03:11:30.465Z,98313.00
2018-11-13T03:15:32.820Z,98318.00
2018-11-13T03:19:35.130Z,98319.00
2018-11-13T03:23:37.500Z,98330.00
2018-11-13T03:27:39.888Z,98321.00
2018-11-13T03:31:42.286Z,98328.00
2018-11-13T03:35:44.719Z,98323.00
2018-11-13T03:39:47.376Z,98325.00
2018-11-13T03:43:49.719Z,98324.00
2018-11-13T03:47:52.259Z,98311.00
2018-11-13T03:51:54.586Z,98302.00
2018-11-13T03:55:56.930Z,98307.00
2018-11-13T03:59:59.306Z,98311.00
2018-11-13T04:04:06.158Z,98334.00
2018-11-13T04:08:08.558Z,98342.00
2018-11-13T04:12:10.856Z,98342.00
2018-11-13T04:16:13.180Z,98343.00
2018-11-13T04:20:16.915Z,98347.00
2018-11-13T04:24:19.272Z,98339.00
2018-11-13T04:28:21.590Z,98339.00
2018-11-13T04:32:23.886Z,98342.00
2018-11-13T04:36:26.229Z,98339.00
2018-11-13T04:40:28.588Z,98348.00
2018-11-13T04:44:30.935Z,98359.00
2018-11-13T04:48:33.283Z,98381.00
2018-11-13T04:52:35.646Z,98383.00
2018-11-13T04:56:37.976Z,98374.00
2018-11-13T05:00:40.347Z,98370.00
2018-11-13T05:04:42.715Z,98364.00
2018-11-13T05:08:45.089Z,98366.00
2018-11-13T05:12:48.079Z,98367.00
2018-11-13T05:16:50.432Z,98380.00
2018-11-13T05:20:52.795Z,98393.00
2018-11-13T05:24:55.950Z,98395.00
2018-11-13T05:28:58.319Z,98391.00
2018-11-13T05:33:00.635Z,98390.00
2018-11-13T05:37:02.981Z,98396.00
2018-11-13T05:41:05.358Z,98394.00
2018-11-13T05:45:10.651Z,98390.00
2018-11-13T05:49:12.954Z,98412.00
2018-11-13T05:53:15.334Z,98414.00
2018-11-13T05:57:17.621Z,98426.00
2018-11-13T06:01:19.995Z,98429.00
2018-11-13T06:05:22.465Z,98430.00
2018-11-13T06:09:25.011Z,98427.00
2018-11-13T06:13:27.359Z,98423.00
2018-11-13T06:17:29.689Z,98432.00
2018-11-13T06:21:32.070Z,98438.00
2018-11-13T06:25:34.381Z,98447.00
2018-11-13T06:29:36.761Z,98448.00
2018-11-13T06:33:39.176Z,98455.00
2018-11-13T06:37:41.545Z,98440.00
2018-11-13T06:41:43.989Z,98457.00
2018-11-13T06:45:46.400Z,98479.00
2018-11-13T06:49:48.800Z,98487.00
2018-11-13T06:54:02.598Z,98497.00
2018-11-13T06:58:05.450Z,98496.00
2018-11-13T07:02:07.810Z,98506.00
2018-11-13T07:06:10.174Z,98515.00
2018-11-13T07:10:13.894Z,98518.00
2018-11-13T07:14:16.268Z,98537.00
2018-11-13T07:18:18.682Z,98548.00
2018-11-13T07:22:21.033Z,98549.00
2018-11-13T07:26:23.380Z,98564.00
2018-11-13T07:30:26.472Z,98559.00
2018-11-13T07:34:28.935Z,98565.00
2018-11-13T07:38:31.169Z,98563.00
2018-11-13T07:42:33.510Z,98568.00
2018-11-13T07:46:35.931Z,98566.00
2018-11-13T07:50:38.248Z,98576.00
2018-11-13T07:54:40.599Z,98600.00
2018-11-13T07:58:42.952Z,98597.00
2018-11-13T08:02:46.803Z,98608.00
2018-11-13T08:06:49.335Z,98624.00
2018-11-13T08:10:51.582Z,98613.00
2018-11-13T08:14:54.343Z,98609.00
2018-11-13T08:18:56.742Z,98609.00
2018-11-13T08:22:59.052Z,98612.00
2018-11-13T08:27:01.542Z,98632.00
2018-11-13T08:31:04.323Z,98628.00
2018-11-13T08:35:06.957Z,98648.00
2018-11-13T08:39:11.114Z,98648.00
2018-11-13T08:43:13.423Z,98656.00
2018-11-13T08:47:15.799Z,98654.00
2018-11-13T08:51:18.183Z,98639.00
2018-11-13T08:55:20.589Z,98661.00
2018-11-13T08:59:22.997Z,98671.00
2018-11-13T09:03:25.388Z,98685.00
2018-11-13T09:07:27.778Z,98677.00
2018-11-13T09:11:30.213Z,98669.00
2018-11-13T09:15:32.603Z,98679.00
2018-11-13T09:19:36.050Z,98685.00
2018-11-13T09:23:38.187Z,98707.00
2018-11-13T09:27:40.712Z,98714.00
2018-11-13T09:31:43.117Z,98713.00
2018-11-13T09:35:45.521Z,98707.00
2018-11-13T09:39:47.840Z,98717.00
2018-11-13T09:43:50.192Z,98724.00
2018-11-13T09:47:52.577Z,98722.00
2018-11-13T09:51:54.923Z,98730.00
2018-11-13T09:55:57.311Z,98730.00
2018-11-13T09:59:59.703Z,98740.00
2018-11-13T10:04:02.624Z,98735.00
2018-11-13T10:08:04.756Z,98747.00
2018-11-13T10:12:07.057Z,98745.00
2018-11-13T10:16:09.408Z,98742.00
2018-11-13T10:20:12.963Z,98742.00
2018-11-13T10:24:15.396Z,98755.00
2018-11-13T10:28:18.039Z,98746.00
2018-11-13T10:32:20.280Z,98732.00
2018-11-13T10:36:22.566Z,98722.00
2018-11-13T10:40:25.031Z,98735.00
2018-11-13T10:44:27.300Z,98725.00
2018-11-13T10:48:29.608Z,98729.00
2018-11-13T10:52:31.929Z,98733.00
2018-11-13T10:56:34.311Z,98734.00
2018-11-13T11:00:42.191Z,98732.00
2018-11-13T11:04:48.346Z,98739.00
2018-11-13T11:08:50.770Z,98734.00
2018-11-13T11:12:53.298Z,98736.00
2018-11-13T11:16:55.597Z,98724.00
2018-11-13T11:20:57.893Z,98735.00
2018-11-13T11:25:00.313Z,98725.00
2018-11-13T11:29:02.743Z,98730.00
2018-11-13T11:33:05.492Z,98735.00
2018-11-13T11:37:07.887Z,98745.00
2018-11-13T11:41:10.303Z,98743.00
2018-11-13T11:45:13.662Z,98743.00
2018-11-13T11:49:16.037Z,98740.00
2018-11-13T11:53:18.399Z,98743.00
2018-11-13T11:57:20.791Z,98742.00
2018-11-13T12:01:23.198Z,98753.00
2018-11-13T12:05:25.563Z,98748.00
2018-11-13T12:09:28.025Z,98759.00
2018-11-13T12:13:30.485Z,98767.00
2018-11-13T12:17:32.900Z,98762.00
2018-11-13T12:21:35.268Z,98759.00
2018-11-13T12:25:37.632Z,98765.00
2018-11-13T12:29:40.382Z,98773.00
2018-11-13T12:33:42.733Z,98762.00
2018-11-13T12:37:45.068Z,98771.00
2018-11-13T12:41:47.369Z,98766.00
2018-11-13T12:45:49.847Z,98769.00
2018-11-13T12:49:52.222Z,98774.00
2018-11-13T12:53:54.589Z,98771.00
2018-11-13T12:57:58.146Z,98783.00
2018-11-13T13:01:59.328Z,98782.00
2018-11-13T13:06:01.696Z,98791.00
2018-11-13T13:10:06.304Z,98781.00
2018-11-13T13:14:14.920Z,98780.00
2018-11-13T13:18:17.330Z,98784.00
2018-11-13T13:22:19.855Z,98797.00
2018-11-13T13:26:22.172Z,98788.00
2018-11-13T13:30:25.449Z,98792.00
2018-11-13T13:34:27.905Z,98784.00
2018-11-13T13:38:31.850Z,98797.00
2018-11-13T13:42:34.445Z,98805.00
2018-11-13T13:46:36.870Z,98794.00
2018-11-13T13:50:39.408Z,98795.00
2018-11-13T13:54:41.999Z,98797.00
2018-11-13T13:58:44.380Z,98801.00
2018-11-13T14:02:46.944Z,98804.00
2018-11-13T14:06:49.690Z,98811.00
2018-11-13T14:10:52.771Z,98813.00
2018-11-13T14:14:55.312Z,98829.00
2018-11-13T14:18:57.676Z,98822.00
2018-11-13T14:23:00.474Z,98837.00
2018-11-13T14:27:03.040Z,98842.00
2018-11-13T14:31:05.524Z,98847.00
2018-11-13T14:35:07.963Z,98864.00
2018-11-13T14:39:10.888Z,98864.00
2018-11-13T14:43:13.536Z,98870.00
2018-11-13T14:47:26.763Z,98879.00
2018-11-13T14:51:29.314Z,98886.00
2018-11-13T14:55:34.850Z,98888.00
2018-11-13T14:59:37.234Z,98892.00
2018-11-13T15:03:39.646Z,98893.00
2018-11-13T15:07:43.066Z,98892.00
2018-11-13T15:11:45.443Z,98903.00
2018-11-13T15:15:47.866Z,98895.00
2018-11-13T15:19:50.296Z,98904.00
2018-11-13T15:23:52.676Z,98905.00
2018-11-13T15:27:55.153Z,98924.00
2018-11-13T15:31:57.704Z,98914.00
2018-11-13T15:36:00.165Z,98917.00
2018-11-13T15:40:02.806Z,98926.00
2018-11-13T15:44:05.383Z,98928.00
2018-11-13T15:48:09.349Z,98941.00
2018-11-13T15:52:11.781Z,98948.00
2018-11-13T15:56:14.038Z,98956.00
2018-11-13T16:00:23.483Z,98961.00
2018-11-13T16:04:25.873Z,98968.00
2018-11-13T16:08:28.265Z,98971.00
2018-11-13T16:12:30.745Z,98984.00
2018-11-13T16:16:33.183Z,98990.00
2018-11-13T16:20:35.644Z,99006.00
2018-11-13T16:24:38.108Z,99003.00
2018-11-13T16:28:40.438Z,99006.00
2018-11-13T16:32:43.695Z,99009.00
2018-11-13T16:36:46.153Z,99026.00
2018-11-13T16:40:48.507Z,99019.00
2018-11-13T16:44:52.180Z,99030.00
2018-11-13T16:48:53.323Z,99039.00
2018-11-13T16:52:55.908Z,99042.00
2018-11-13T16:56:58.989Z,99049.00
2018-11-13T17:01:01.340Z,99049.00
2018-11-13T17:05:04.435Z,99048.00
2018-11-13T17:09:08.708Z,99052.00
2018-11-13T17:13:11.189Z,99042.00
2018-11-13T17:17:13.575Z,99054.00
2018-11-13T17:21:15.949Z,99056.00
2018-11-13T17:25:19.701Z,99067.00
2018-11-13T17:29:23.741Z,99066.00
2018-11-13T17:33:26.097Z,99065.00
2018-11-13T17:37:28.413Z,99068.00
2018-11-13T17:41:31.024Z,99072.00
2018-11-13T17:45:34.631Z,99080.00
2018-11-13T17:49:37.223Z,99083.00
2018-11-13T17:53:39.668Z,99091.00
2018-11-13T17:57:42.908Z,99089.00
2018-11-13T18:01:45.358Z,99096.00
2018-11-13T18:05:48.263Z,99097.00
2018-11-13T18:09:50.595Z,99105.00
2018-11-13T18:13:53.650Z,99099.00
2018-11-13T18:17:56.109Z,99105.00
2018-11-13T18:21:58.647Z,99108.00
2018-11-13T18:26:00.998Z,99113.00
2018-11-13T18:30:04.045Z,99107.00
2018-11-13T18:34:06.818Z,99099.00
2018-11-13T18:38:10.854Z,99097.00
2018-11-13T18:42:13.403Z,99093.00
2018-11-13T18:46:16.274Z,99099.00
2018-11-13T18:50:21.508Z,99095.00
2018-11-13T18:54:33.365Z,99098.00
2018-11-13T18:58:36.214Z,99098.00
2018-11-13T19:02:39.168Z,99101.00
2018-11-13T19:06:41.598Z,99113.00
2018-11-13T19:10:45.734Z,99117.00
2018-11-13T19:14:48.541Z,99117.00
2018-11-13T19:18:51.537Z,99124.00
2018-11-13T19:22:54.296Z,99123.00
2018-11-13T19:26:57.401Z,99125.00
2018-11-13T19:31:00.132Z,99125.00
2018-11-13T19:35:02.710Z,99133.00
2018-11-13T19:39:08.317Z,99130.00
2018-11-13T19:43:11.766Z,99132.00
2018-11-13T19:47:14.134Z,99136.00
2018-11-13T19:51:17.804Z,99138.00
2018-11-13T19:55:21.049Z,99142.00
2018-11-13T19:59:23.440Z,99147.00
2018-11-13T20:03:25.804Z,99142.00
2018-11-13T20:07:28.299Z,99136.00
2018-11-13T20:11:30.796Z,99139.00
2018-11-13T20:15:33.932Z,99139.00
2018-11-13T20:19:37.527Z,99148.00
2018-11-13T20:23:40.482Z,99148.00
2018-11-13T20:27:43.202Z,99156.00
2018-11-13T20:31:45.883Z,99170.00
2018-11-13T20:35:48.420Z,99173.00
2018-11-13T20:39:51.134Z,99185.00
2018-11-13T20:43:54.011Z,99180.00
2018-11-13T20:47:56.915Z,99183.00
2018-11-13T20:51:59.256Z,99179.00
2018-11-13T20:56:01.717Z,99189.00
2018-11-13T21:00:08.129Z,99188.00
2018-11-13T21:04:10.657Z,99196.00
2018-11-13T21:08:14.889Z,99201.00
2018-11-13T21:12:17.526Z,99200.00
2018-11-13T21:16:20.489Z,99210.00
2018-11-13T21:20:23.362Z,99203.00
2018-11-13T21:24:27.044Z,99202.00
2018-11-13T21:28:29.534Z,99209.00
2018-11-13T21:32:33.807Z,99210.00
2018-11-13T21:36:36.578Z,99214.00
2018-11-13T21:40:40.777Z,99209.00
2018-11-13T21:44:45.911Z,99208.00
2018-11-13T21:48:48.407Z,99211.00
2018-11-13T21:52:50.896Z,99204.00
2018-11-13T21:56:53.323Z,99210.00
2018-11-13T22:00:55.734Z,99206.00
2018-11-13T22:04:58.190Z,99197.00
2018-11-13T22:09:00.786Z,99207.00
2018-11-13T22:13:10.512Z,99202.00
2018-11-13T22:17:12.890Z,99216.00
2018-11-13T22:21:15.458Z,99212.00
2018-11-13T22:25:20.695Z,99210.00
2018-11-13T22:29:23.092Z,99208.00
2018-11-13T22:33:25.609Z,99204.00
2018-11-13T22:37:27.982Z,99213.00
2018-11-13T22:41:30.357Z,99217.00
2018-11-13T22:45:32.766Z,99206.00
2018-11-13T22:49:35.137Z,99207.00
2018-11-13T22:53:37.580Z,99207.00
2018-11-13T22:57:40.684Z,99209.00
2018-11-13T23:01:43.094Z,99205.00
2018-11-13T23:05:47.689Z,99215.00
2018-11-13T23:09:50.401Z,99215.00
2018-11-13T23:13:52.852Z,99216.00
2018-11-13T23:17:55.842Z,99225.00
2018-11-13T23:21:58.231Z,99222.00
2018-11-13T23:26:00.669Z,99226.00
2018-11-13T23:30:03.630Z,99219.00
2018-11-13T23:34:06.718Z,99227.00
2018-11-13T23:38:09.332Z,99221.00
2018-11-13T23:42:11.741Z,99227.00
2018-11-13T23:46:14.296Z,99234.00
2018-11-13T23:50:16.797Z,99233.00
2018-11-13T23:54:20.934Z,99237.00
2018-11-13T23:58:23.366Z,99238.00
